| time (UTC) | temp C | wind direction | speed KPH | gust KPH | rain 1hr cm | rain 24hr cm | rain mn cm | humidity % | barometer mb |
| 20260507192955 | 12 | 19 | 3.2 | 12.9 | 0.00 | 0.56 | 0.00 | 64 | 1015.1 |
| 20260507192457 | 12 | 22 | 1.6 | 8.0 | 0.00 | 0.56 | 0.00 | 64 | 1015.0 |
| 20260507191958 | 12 | 36 | 4.8 | 11.3 | 0.00 | 0.56 | 0.00 | 64 | 1014.9 |
| 20260507191500 | 12 | 23 | 4.8 | 11.3 | 0.00 | 0.56 | 0.00 | 64 | 1014.8 |
| 20260507191001 | 12 | 34 | 1.6 | 4.8 | 0.00 | 0.56 | 0.00 | 64 | 1014.7 |
| 20260507190503 | 12 | 47 | 4.8 | 12.9 | 0.00 | 0.56 | 0.00 | 64 | 1014.6 |
| 20260507190005 | 12 | 333 | 3.2 | 6.4 | 0.00 | 0.56 | 0.00 | 63 | 1014.5 |
| 20260507185506 | 12 | 316 | 4.8 | 17.7 | 0.00 | 0.56 | 0.00 | 63 | 1014.4 |
| 20260507185007 | 12 | 260 | 0.0 | 3.2 | 0.00 | 0.56 | 0.00 | 63 | 1014.3 |
| 20260507184509 | 12 | 356 | 3.2 | 8.0 | 0.00 | 0.56 | 0.00 | 63 | 1014.3 |
| 20260507184010 | 12 | 45 | 1.6 | 8.0 | 0.00 | 0.56 | 0.00 | 63 | 1014.3 |
| 20260507183512 | 13 | 73 | 0.0 | 3.2 | 0.00 | 0.56 | 0.00 | 62 | 1014.3 |
| 20260507183013 | 13 | 65 | 0.0 | 4.8 | 0.00 | 0.56 | 0.00 | 62 | 1014.2 |
| 20260507182515 | 13 | 81 | 1.6 | 9.7 | 0.00 | 0.56 | 0.00 | 62 | 1014.1 |
| 20260507182016 | 13 | 275 | 3.2 | 9.7 | 0.00 | 0.56 | 0.00 | 62 | 1014.1 |
| 20260507181518 | 13 | 308 | 4.8 | 14.5 | 0.00 | 0.56 | 0.00 | 61 | 1014.0 |
| 20260507181019 | 13 | 350 | 3.2 | 6.4 | 0.00 | 0.56 | 0.00 | 61 | 1013.9 |
| 20260507180520 | 14 | 304 | 4.8 | 9.7 | 0.00 | 0.56 | 0.00 | 61 | 1013.9 |
| 20260507180022 | 14 | 308 | 8.0 | 14.5 | 0.00 | 0.56 | 0.00 | 60 | 1013.9 |
| 20260507175523 | 15 | 324 | 6.4 | 11.3 | 0.00 | 0.56 | 0.00 | 60 | 1013.8 |
| 20260507175025 | 15 | 315 | 4.8 | 11.3 | 0.00 | 0.56 | 0.00 | 60 | 1013.7 |
| 20260507174526 | 15 | 312 | 6.4 | 16.1 | 0.00 | 0.56 | 0.00 | 59 | 1013.7 |
| 20260507174028 | 15 | 306 | 4.8 | 11.3 | 0.00 | 0.56 | 0.00 | 59 | 1013.6 |
| 20260507173529 | 16 | 309 | 4.8 | 9.7 | 0.00 | 0.56 | 0.00 | 59 | 1013.6 |
| 20260507173031 | 16 | 297 | 4.8 | 11.3 | 0.00 | 0.56 | 0.00 | 59 | 1013.4 |
| 20260507172532 | 16 | 335 | 4.8 | 12.9 | 0.00 | 0.56 | 0.00 | 58 | 1013.4 |
| 20260507172034 | 16 | 336 | 4.8 | 11.3 | 0.00 | 0.56 | 0.00 | 58 | 1013.4 |
| 20260507171535 | 16 | 296 | 3.2 | 8.0 | 0.00 | 0.56 | 0.00 | 58 | 1013.3 |
| 20260507171037 | 16 | 321 | 3.2 | 9.7 | 0.00 | 0.56 | 0.00 | 58 | 1013.3 |
| 20260507170538 | 16 | 294 | 4.8 | 11.3 | 0.00 | 0.56 | 0.00 | 58 | 1013.3 |
| 20260507170040 | 16 | 306 | 6.4 | 11.3 | 0.00 | 0.56 | 0.00 | 57 | 1013.3 |
| 20260507165541 | 17 | 312 | 8.0 | 17.7 | 0.00 | 0.56 | 0.00 | 57 | 1013.3 |
| 20260507165043 | 17 | 311 | 6.4 | 9.7 | 0.00 | 0.56 | 0.00 | 57 | 1013.3 |
| 20260507164544 | 17 | 301 | 6.4 | 11.3 | 0.00 | 0.56 | 0.00 | 57 | 1013.3 |
| 20260507164045 | 17 | 286 | 8.0 | 16.1 | 0.00 | 0.56 | 0.00 | 56 | 1013.3 |
| 20260507163547 | 17 | 302 | 4.8 | 8.0 | 0.00 | 0.56 | 0.00 | 56 | 1013.2 |
| 20260507163048 | 17 | 302 | 6.4 | 14.5 | 0.00 | 0.56 | 0.00 | 56 | 1013.2 |
| 20260507162550 | 18 | 296 | 4.8 | 11.3 | 0.00 | 0.56 | 0.00 | 56 | 1013.2 |
| 20260507162051 | 18 | 317 | 6.4 | 17.7 | 0.00 | 0.56 | 0.00 | 56 | 1013.1 |
| 20260507161553 | 18 | 323 | 6.4 | 24.1 | 0.00 | 0.56 | 0.00 | 55 | 1013.1 |
| 20260507161054 | 18 | 321 | 8.0 | 12.9 | 0.00 | 0.56 | 0.00 | 55 | 1013.1 |
| 20260507160556 | 18 | 359 | 4.8 | 9.7 | 0.00 | 0.56 | 0.00 | 55 | 1013.0 |
| 20260507160057 | 18 | 33 | 3.2 | 6.4 | 0.00 | 0.56 | 0.00 | 55 | 1012.9 |
| 20260507155559 | 18 | 28 | 4.8 | 17.7 | 0.00 | 0.61 | 0.00 | 55 | 1012.9 |
| 20260507155100 | 18 | 308 | 8.0 | 11.3 | 0.00 | 0.66 | 0.00 | 54 | 1012.9 |
| 20260507154602 | 18 | 274 | 6.4 | 11.3 | 0.00 | 0.66 | 0.00 | 54 | 1012.8 |
| 20260507154103 | 19 | 270 | 8.0 | 24.1 | 0.00 | 0.66 | 0.00 | 54 | 1012.8 |
| 20260507153605 | 19 | 264 | 11.3 | 20.9 | 0.00 | 0.71 | 0.00 | 54 | 1012.8 |
| 20260507153106 | 20 | 267 | 6.4 | 11.3 | 0.00 | 0.71 | 0.00 | 55 | 1012.6 |
| 20260507152608 | 20 | 260 | 6.4 | 11.3 | 0.00 | 0.71 | 0.00 | 55 | 1012.7 |
| 20260507152109 | 20 | 293 | 6.4 | 12.9 | 0.00 | 0.71 | 0.00 | 54 | 1012.7 |
| 20260507151610 | 20 | 303 | 9.7 | 22.5 | 0.00 | 0.71 | 0.00 | 54 | 1012.6 |
| 20260507151112 | 20 | 313 | 8.0 | 16.1 | 0.00 | 0.71 | 0.00 | 54 | 1012.5 |
| 20260507150613 | 21 | 315 | 8.0 | 16.1 | 0.00 | 0.71 | 0.00 | 54 | 1012.4 |
| 20260507150115 | 21 | 302 | 9.7 | 20.9 | 0.00 | 0.71 | 0.00 | 54 | 1012.4 |
| 20260507145616 | 21 | 303 | 6.4 | 9.7 | 0.00 | 0.71 | 0.00 | 54 | 1012.4 |
| 20260507145118 | 22 | 315 | 6.4 | 14.5 | 0.00 | 0.71 | 0.00 | 53 | 1012.4 |
| 20260507144619 | 23 | 268 | 8.0 | 14.5 | 0.00 | 0.71 | 0.00 | 53 | 1012.5 |
| 20260507144121 | 23 | 301 | 6.4 | 11.3 | 0.00 | 0.71 | 0.00 | 53 | 1012.4 |
| 20260507143622 | 24 | 284 | 4.8 | 9.7 | 0.00 | 0.71 | 0.00 | 53 | 1012.3 |
| 20260507143124 | 25 | 255 | 6.4 | 11.3 | 0.00 | 0.71 | 0.00 | 52 | 1012.3 |
| 20260507142625 | 25 | 253 | 8.0 | 16.1 | 0.00 | 0.71 | 0.00 | 52 | 1012.5 |
| 20260507142127 | 26 | 284 | 3.2 | 11.3 | 0.00 | 0.71 | 0.00 | 52 | 1012.4 |
| 20260507141628 | 27 | 305 | 4.8 | 9.7 | 0.00 | 0.71 | 0.00 | 51 | 1012.4 |
| 20260507141130 | 27 | 258 | 6.4 | 14.5 | 0.00 | 0.71 | 0.00 | 51 | 1012.4 |
| 20260507140631 | 26 | 312 | 4.8 | 8.0 | 0.00 | 0.71 | 0.00 | 51 | 1012.4 |
| 20260507140133 | 25 | 266 | 8.0 | 14.5 | 0.00 | 0.71 | 0.00 | 52 | 1012.4 |
| 20260507135634 | 25 | 276 | 8.0 | 14.5 | 0.00 | 0.71 | 0.00 | 54 | 1012.4 |
| 20260507135135 | 24 | 251 | 8.0 | 16.1 | 0.00 | 0.71 | 0.00 | 54 | 1012.5 |
| 20260507134637 | 25 | 276 | 8.0 | 12.9 | 0.00 | 0.71 | 0.00 | 53 | 1012.4 |
| 20260507134138 | 25 | 259 | 11.3 | 17.7 | 0.00 | 0.71 | 0.00 | 53 | 1012.5 |
| 20260507133640 | 25 | 268 | 8.0 | 16.1 | 0.00 | 0.71 | 0.00 | 54 | 1012.5 |
| 20260507133141 | 25 | 262 | 8.0 | 17.7 | 0.00 | 0.71 | 0.00 | 56 | 1012.5 |
| 20260507132643 | 25 | 268 | 8.0 | 20.9 | 0.00 | 0.71 | 0.00 | 56 | 1012.5 |
| 20260507132144 | 24 | 303 | 6.4 | 16.1 | 0.00 | 0.71 | 0.00 | 57 | 1012.5 |
| 20260507131646 | 24 | 254 | 9.7 | 20.9 | 0.00 | 0.71 | 0.00 | 56 | 1012.5 |
| 20260507131147 | 24 | 247 | 11.3 | 16.1 | 0.00 | 0.71 | 0.00 | 58 | 1012.6 |
| 20260507130649 | 23 | 263 | 9.7 | 16.1 | 0.00 | 0.71 | 0.00 | 60 | 1012.5 |
| 20260507130150 | 22 | 277 | 8.0 | 19.3 | 0.00 | 0.71 | 0.00 | 61 | 1012.5 |
| 20260507125651 | 22 | 258 | 9.7 | 19.3 | 0.00 | 0.71 | 0.00 | 62 | 1012.5 |
| 20260507125153 | 22 | 302 | 8.0 | 16.1 | 0.00 | 0.71 | 0.00 | 62 | 1012.4 |
| 20260507124654 | 22 | 283 | 8.0 | 24.1 | 0.00 | 0.71 | 0.00 | 63 | 1012.4 |
| 20260507124156 | 22 | 280 | 8.0 | 14.5 | 0.00 | 0.71 | 0.00 | 63 | 1012.5 |
| 20260507123657 | 22 | 264 | 8.0 | 14.5 | 0.00 | 0.71 | 0.00 | 64 | 1012.5 |
| 20260507123159 | 22 | 274 | 9.7 | 19.3 | 0.00 | 0.71 | 0.00 | 64 | 1012.4 |
| 20260507122700 | 22 | 266 | 9.7 | 12.9 | 0.00 | 0.71 | 0.00 | 66 | 1012.4 |
| 20260507122202 | 21 | 250 | 8.0 | 12.9 | 0.00 | 0.71 | 0.00 | 67 | 1012.3 |
| 20260507121703 | 20 | 259 | 6.4 | 12.9 | 0.00 | 0.71 | 0.00 | 69 | 1012.3 |
| 20260507121205 | 19 | 272 | 6.4 | 11.3 | 0.00 | 0.71 | 0.00 | 70 | 1012.3 |
| 20260507120706 | 19 | 265 | 9.7 | 19.3 | 0.00 | 0.71 | 0.00 | 70 | 1012.4 |
| 20260507120207 | 19 | 252 | 8.0 | 14.5 | 0.00 | 0.71 | 0.00 | 72 | 1012.3 |
| 20260507115709 | 19 | 257 | 6.4 | 11.3 | 0.00 | 0.71 | 0.00 | 72 | 1012.2 |
| 20260507115210 | 20 | 269 | 8.0 | 16.1 | 0.00 | 0.71 | 0.00 | 72 | 1012.3 |
| 20260507114712 | 20 | 281 | 6.4 | 11.3 | 0.00 | 0.71 | 0.00 | 72 | 1012.3 |
| 20260507114213 | 20 | 270 | 9.7 | 16.1 | 0.00 | 0.71 | 0.00 | 72 | 1012.2 |
| 20260507113715 | 21 | 276 | 9.7 | 16.1 | 0.00 | 0.71 | 0.00 | 73 | 1012.4 |
| 20260507113216 | 21 | 265 | 6.4 | 11.3 | 0.00 | 0.71 | 0.00 | 74 | 1012.2 |
| 20260507112718 | 21 | 250 | 9.7 | 16.1 | 0.00 | 0.71 | 0.00 | 74 | 1012.1 |
| 20260507112219 | 21 | 263 | 6.4 | 12.9 | 0.00 | 0.71 | 0.00 | 75 | 1012.2 |
| 20260507111721 | 21 | 264 | 8.0 | 17.7 | 0.00 | 0.71 | 0.00 | 76 | 1012.2 |
| 20260507111222 | 22 | 287 | 8.0 | 19.3 | 0.00 | 0.71 | 0.00 | 76 | 1012.2 |
| 20260507110724 | 22 | 285 | 6.4 | 16.1 | 0.00 | 0.71 | 0.00 | 75 | 1012.1 |
| 20260507110225 | 23 | 280 | 8.0 | 16.1 | 0.00 | 0.71 | 0.00 | 75 | 1012.2 |
| 20260507105726 | 24 | 270 | 11.3 | 25.7 | 0.00 | 0.71 | 0.00 | 75 | 1012.2 |
| 20260507105228 | 25 | 258 | 8.0 | 11.3 | 0.00 | 0.71 | 0.00 | 78 | 1012.1 |
| 20260507104729 | 23 | 272 | 8.0 | 11.3 | 0.00 | 0.71 | 0.00 | 79 | 1012.1 |
| 20260507104231 | 23 | 259 | 9.7 | 20.9 | 0.00 | 0.71 | 0.00 | 80 | 1012.1 |
| 20260507103732 | 22 | 265 | 9.7 | 24.1 | 0.00 | 0.71 | 0.00 | 80 | 1012.2 |
| 20260507103234 | 22 | 264 | 4.8 | 12.9 | 0.00 | 0.71 | 0.00 | 81 | 1011.9 |
| 20260507102735 | 21 | 274 | 8.0 | 14.5 | 0.00 | 0.71 | 0.00 | 81 | 1012.0 |
| 20260507102237 | 21 | 260 | 8.0 | 16.1 | 0.00 | 0.71 | 0.00 | 81 | 1011.9 |
| 20260507101738 | 21 | 292 | 8.0 | 17.7 | 0.00 | 0.71 | 0.00 | 81 | 1011.9 |
| 20260507101240 | 20 | 280 | 8.0 | 22.5 | 0.00 | 0.71 | 0.00 | 81 | 1011.8 |
| 20260507100741 | 20 | 298 | 6.4 | 12.9 | 0.00 | 0.71 | 0.00 | 81 | 1011.9 |
| 20260507100243 | 20 | 315 | 6.4 | 11.3 | 0.00 | 0.71 | 0.00 | 80 | 1011.8 |
| 20260507095744 | 21 | 291 | 6.4 | 14.5 | 0.00 | 0.71 | 0.00 | 81 | 1011.7 |
| 20260507095245 | 21 | 255 | 6.4 | 14.5 | 0.00 | 0.71 | 0.00 | 81 | 1011.7 |
| 20260507094747 | 21 | 277 | 9.7 | 16.1 | 0.00 | 0.71 | 0.00 | 80 | 1011.7 |
| 20260507094248 | 21 | 255 | 6.4 | 14.5 | 0.00 | 0.71 | 0.00 | 81 | 1011.6 |
| 20260507093750 | 20 | 276 | 8.0 | 11.3 | 0.00 | 0.71 | 0.00 | 80 | 1011.5 |
| 20260507093251 | 20 | 262 | 12.9 | 20.9 | 0.00 | 0.71 | 0.00 | 78 | 1011.5 |
| 20260507092753 | 21 | 260 | 9.7 | 32.2 | 0.00 | 0.71 | 0.00 | 77 | 1011.6 |
| 20260507092254 | 21 | 260 | 6.4 | 12.9 | 0.00 | 0.71 | 0.00 | 78 | 1011.5 |
| 20260507091756 | 22 | 261 | 4.8 | 11.3 | 0.00 | 0.71 | 0.00 | 77 | 1011.4 |
| 20260507091257 | 23 | 292 | 4.8 | 8.0 | 0.00 | 0.71 | 0.00 | 77 | 1011.4 |
| 20260507090759 | 23 | 271 | 6.4 | 14.5 | 0.00 | 0.71 | 0.00 | 76 | 1011.3 |
| 20260507090300 | 23 | 298 | 6.4 | 14.5 | 0.00 | 0.71 | 0.00 | 78 | 1011.3 |
| 20260507085802 | 23 | 273 | 8.0 | 17.7 | 0.00 | 0.71 | 0.00 | 77 | 1011.3 |
| 20260507085306 | 22 | 274 | 6.4 | 11.3 | 0.00 | 0.71 | 0.00 | 80 | 1011.2 |
| 20260507084804 | 21 | 319 | 4.8 | 9.7 | 0.00 | 0.71 | 0.00 | 80 | 1011.2 |
| 20260507084306 | 21 | 263 | 8.0 | 16.1 | 0.00 | 0.71 | 0.00 | 80 | 1011.2 |
| 20260507083807 | 21 | 270 | 8.0 | 16.1 | 0.00 | 0.71 | 0.00 | 82 | 1011.1 |
| 20260507083309 | 20 | 276 | 8.0 | 16.1 | 0.00 | 0.71 | 0.00 | 83 | 1011.1 |
| 20260507082810 | 19 | 256 | 8.0 | 14.5 | 0.00 | 0.71 | 0.00 | 83 | 1011.0 |
| 20260507082312 | 18 | 269 | 8.0 | 16.1 | 0.00 | 0.71 | 0.00 | 84 | 1011.0 |
| 20260507081813 | 18 | 267 | 9.7 | 16.1 | 0.00 | 0.71 | 0.00 | 83 | 1010.9 |
| 20260507081315 | 18 | 255 | 9.7 | 14.5 | 0.00 | 0.71 | 0.00 | 84 | 1010.9 |
| 20260507080816 | 18 | 277 | 8.0 | 16.1 | 0.00 | 0.71 | 0.00 | 87 | 1010.7 |
| 20260507080317 | 17 | 294 | 6.4 | 9.7 | 0.00 | 0.71 | 0.00 | 89 | 1010.6 |
| 20260507075819 | 16 | 264 | 9.7 | 16.1 | 0.00 | 0.71 | 0.00 | 90 | 1010.7 |
| 20260507075320 | 15 | 272 | 8.0 | 20.9 | 0.00 | 0.71 | 0.00 | 90 | 1010.7 |
| 20260507074822 | 15 | 253 | 8.0 | 12.9 | 0.00 | 0.71 | 0.00 | 90 | 1010.7 |
| 20260507074323 | 14 | 254 | 6.4 | 14.5 | 0.00 | 0.71 | 0.00 | 90 | 1010.7 |
| 20260507073825 | 14 | 248 | 8.0 | 20.9 | 0.00 | 0.71 | 0.00 | 90 | 1010.6 |
| 20260507073326 | 14 | 264 | 8.0 | 16.1 | 0.00 | 0.71 | 0.00 | 90 | 1010.6 |
| 20260507072828 | 14 | 281 | 6.4 | 11.3 | 0.00 | 0.71 | 0.00 | 90 | 1010.6 |
| 20260507072329 | 14 | 280 | 8.0 | 16.1 | 0.00 | 0.71 | 0.00 | 90 | 1010.5 |
| 20260507071831 | 15 | 249 | 6.4 | 11.3 | 0.00 | 0.71 | 0.00 | 90 | 1010.5 |
| 20260507071332 | 15 | 257 | 4.8 | 8.0 | 0.00 | 0.71 | 0.00 | 91 | 1010.4 |
| 20260507070834 | 15 | 300 | 4.8 | 11.3 | 0.00 | 0.71 | 0.00 | 91 | 1010.3 |
| 20260507070335 | 15 | 294 | 3.2 | 9.7 | 0.00 | 0.71 | 0.00 | 92 | 1010.2 |
| 20260507065837 | 15 | 269 | 6.4 | 11.3 | 0.00 | 0.71 | 0.00 | 92 | 1010.2 |
| 20260507065338 | 15 | 250 | 4.8 | 9.7 | 0.00 | 0.71 | 0.00 | 92 | 1010.2 |
| 20260507064840 | 15 | 260 | 6.4 | 16.1 | 0.00 | 0.71 | 0.00 | 92 | 1010.1 |
| 20260507064341 | 14 | 268 | 6.4 | 11.3 | 0.00 | 0.71 | 0.00 | 93 | 1010.1 |
| 20260507063843 | 14 | 259 | 4.8 | 11.3 | 0.00 | 0.71 | 0.00 | 93 | 1010.1 |
| 20260507063344 | 14 | 265 | 6.4 | 11.3 | 0.00 | 0.71 | 0.00 | 93 | 1010.1 |
| 20260507062845 | 13 | 234 | 3.2 | 6.4 | 0.00 | 0.71 | 0.00 | 93 | 1010.0 |
| 20260507062347 | 13 | 261 | 4.8 | 9.7 | 0.00 | 0.71 | 0.00 | 93 | 1010.0 |
| 20260507061848 | 13 | 253 | 3.2 | 9.7 | 0.00 | 0.71 | 0.00 | 93 | 1009.9 |
| 20260507061350 | 12 | 265 | 4.8 | 8.0 | 0.00 | 0.71 | 0.00 | 93 | 1009.9 |
| 20260507060851 | 12 | 266 | 4.8 | 11.3 | 0.00 | 0.71 | 0.00 | 93 | 1009.8 |
| 20260507060353 | 12 | 230 | 1.6 | 3.2 | 0.00 | 0.71 | 0.00 | 93 | 1009.7 |
| 20260507055854 | 12 | 259 | 4.8 | 11.3 | 0.00 | 0.71 | 0.00 | 93 | 1009.7 |
| 20260507055355 | 12 | 251 | 4.8 | 8.0 | 0.00 | 0.71 | 0.00 | 93 | 1009.7 |
| 20260507054857 | 12 | 265 | 4.8 | 8.0 | 0.00 | 0.71 | 0.00 | 93 | 1009.6 |
| 20260507054358 | 12 | 242 | 3.2 | 8.0 | 0.00 | 0.71 | 0.00 | 93 | 1009.6 |
| 20260507053900 | 12 | 250 | 4.8 | 9.7 | 0.00 | 0.71 | 0.00 | 93 | 1009.6 |
| 20260507053401 | 12 | 259 | 6.4 | 12.9 | 0.00 | 0.71 | 0.00 | 93 | 1009.4 |
| 20260507052903 | 11 | 262 | 4.8 | 9.7 | 0.00 | 0.71 | 0.00 | 93 | 1009.4 |
| 20260507052404 | 11 | 255 | 3.2 | 6.4 | 0.00 | 0.71 | 0.00 | 93 | 1009.4 |
| 20260507051906 | 11 | 250 | 4.8 | 11.3 | 0.00 | 0.71 | 0.00 | 93 | 1009.5 |
| 20260507051407 | 11 | 252 | 3.2 | 8.0 | 0.00 | 0.71 | 0.00 | 93 | 1009.4 |
| 20260507050909 | 11 | 243 | 4.8 | 9.7 | 0.00 | 0.71 | 0.00 | 93 | 1009.3 |
| 20260507050410 | 11 | 251 | 3.2 | 9.7 | 0.00 | 0.71 | 0.00 | 93 | 1009.3 |
| 20260507045912 | 11 | 242 | 1.6 | 4.8 | 0.00 | 0.71 | 0.00 | 93 | 1009.3 |
| 20260507045413 | 11 | 257 | 3.2 | 8.0 | 0.00 | 0.71 | 0.00 | 93 | 1009.2 |
| 20260507044914 | 10 | 240 | 3.2 | 4.8 | 0.00 | 0.71 | 0.00 | 93 | 1009.1 |
| 20260507044416 | 10 | 242 | 1.6 | 4.8 | 0.00 | 0.71 | 0.00 | 92 | 1008.9 |
| 20260507043917 | 10 | 233 | 1.6 | 4.8 | 0.00 | 0.71 | 0.00 | 92 | 1008.9 |
| 20260507043419 | 10 | 261 | 1.6 | 4.8 | 0.00 | 0.71 | 0.00 | 91 | 1008.9 |
| 20260507042920 | 10 | 216 | 1.6 | 4.8 | 0.00 | 0.71 | 0.00 | 91 | 1008.9 |
| 20260507042422 | 10 | 232 | 0.0 | 3.2 | 0.00 | 0.71 | 0.00 | 91 | 1008.8 |
| 20260507041924 | 10 | 209 | 0.0 | 4.8 | 0.00 | 0.71 | 0.00 | 91 | 1008.6 |
| 20260507041425 | 10 | 197 | 0.0 | 1.6 | 0.00 | 0.71 | 0.00 | 90 | 1008.6 |
| 20260507040927 | 10 | 220 | 1.6 | 6.4 | 0.00 | 0.71 | 0.00 | 90 | 1008.6 |
| 20260507040428 | 10 | 211 | 1.6 | 3.2 | 0.00 | 0.71 | 0.00 | 90 | 1008.6 |
| 20260507035929 | 10 | 224 | 1.6 | 4.8 | 0.00 | 0.71 | 0.00 | 91 | 1008.6 |
| 20260507035430 | 10 | 242 | 3.2 | 4.8 | 0.00 | 0.71 | 0.00 | 90 | 1008.4 |
| 20260507034932 | 10 | 255 | 1.6 | 4.8 | 0.00 | 0.71 | 0.00 | 90 | 1008.4 |
| 20260507034433 | 10 | 240 | 1.6 | 6.4 | 0.00 | 0.71 | 0.00 | 90 | 1008.4 |
| 20260507033935 | 10 | 244 | 1.6 | 4.8 | 0.00 | 0.71 | 0.00 | 90 | 1008.5 |
| 20260507033436 | 10 | 241 | 3.2 | 4.8 | 0.00 | 0.71 | 0.00 | 90 | 1008.4 |
| 20260507032938 | 10 | 232 | 3.2 | 8.0 | 0.00 | 0.71 | 0.00 | 90 | 1008.4 |
| 20260507032439 | 10 | 230 | 3.2 | 6.4 | 0.00 | 0.71 | 0.00 | 90 | 1008.4 |
| 20260507031941 | 10 | 253 | 3.2 | 6.4 | 0.00 | 0.71 | 0.00 | 90 | 1008.4 |
| 20260507031442 | 10 | 250 | 3.2 | 6.4 | 0.00 | 0.71 | 0.00 | 90 | 1008.4 |
| 20260507030944 | 10 | 250 | 1.6 | 6.4 | 0.00 | 0.71 | 0.00 | 90 | 1008.3 |
| 20260507030445 | 10 | 241 | 3.2 | 6.4 | 0.00 | 0.71 | 0.00 | 90 | 1008.3 |
| 20260507025947 | 10 | 237 | 3.2 | 8.0 | 0.00 | 0.71 | 0.00 | 90 | 1008.3 |
| 20260507025448 | 10 | 242 | 1.6 | 4.8 | 0.00 | 0.71 | 0.00 | 90 | 1008.1 |
| 20260507024950 | 10 | 232 | 1.6 | 4.8 | 0.00 | 0.71 | 0.00 | 89 | 1008.1 |
| 20260507024451 | 10 | 254 | 1.6 | 3.2 | 0.00 | 0.71 | 0.00 | 89 | 1008.1 |
| 20260507023952 | 10 | 230 | 1.6 | 6.4 | 0.00 | 0.71 | 0.00 | 89 | 1008.1 |
| 20260507023454 | 10 | 237 | 1.6 | 4.8 | 0.00 | 0.71 | 0.00 | 89 | 1008.1 |
| 20260507022955 | 11 | 258 | 1.6 | 3.2 | 0.00 | 0.71 | 0.00 | 89 | 1008.1 |
| 20260507022457 | 11 | 232 | 0.0 | 3.2 | 0.00 | 0.71 | 0.00 | 89 | 1008.0 |
| 20260507021958 | 11 | 261 | 1.6 | 4.8 | 0.00 | 0.71 | 0.00 | 90 | 1008.0 |
| 20260507021500 | 11 | 262 | 1.6 | 4.8 | 0.00 | 0.71 | 0.00 | 90 | 1008.0 |
| 20260507021001 | 11 | 248 | 1.6 | 11.3 | 0.00 | 0.71 | 0.00 | 90 | 1008.0 |
| 20260507020503 | 11 | 264 | 3.2 | 6.4 | 0.00 | 0.71 | 0.00 | 90 | 1008.0 |
| 20260507020004 | 11 | 279 | 4.8 | 11.3 | 0.00 | 0.71 | 0.00 | 90 | 1007.9 |
| 20260507015506 | 11 | 250 | 4.8 | 8.0 | 0.00 | 0.71 | 0.00 | 90 | 1007.9 |
| 20260507015007 | 11 | 257 | 3.2 | 9.7 | 0.00 | 0.71 | 0.00 | 90 | 1007.8 |
| 20260507014509 | 11 | 244 | 4.8 | 11.3 | 0.00 | 0.71 | 0.00 | 90 | 1007.7 |
| 20260507014011 | 11 | 259 | 1.6 | 4.8 | 0.00 | 0.71 | 0.00 | 90 | 1007.7 |
| 20260507013512 | 11 | 246 | 3.2 | 11.3 | 0.00 | 0.71 | 0.00 | 90 | 1007.7 |
| 20260507013013 | 11 | 242 | 3.2 | 8.0 | 0.00 | 0.71 | 0.00 | 90 | 1007.6 |
| 20260507012515 | 11 | 239 | 1.6 | 4.8 | 0.00 | 0.71 | 0.00 | 89 | 1007.6 |
| 20260507012016 | 11 | 230 | 1.6 | 4.8 | 0.00 | 0.71 | 0.00 | 89 | 1007.5 |
| 20260507011518 | 11 | 242 | 1.6 | 3.2 | 0.00 | 0.71 | 0.00 | 90 | 1007.5 |
| 20260507011019 | 11 | 235 | 0.0 | 3.2 | 0.00 | 0.71 | 0.00 | 90 | 1007.4 |
| 20260507010520 | 12 | 229 | 0.0 | 3.2 | 0.00 | 0.71 | 0.00 | 89 | 1007.4 |
| 20260507010022 | 12 | 227 | 1.6 | 8.0 | 0.00 | 0.71 | 0.00 | 89 | 1007.4 |
| 20260507005523 | 12 | 240 | 3.2 | 8.0 | 0.00 | 0.71 | 0.00 | 89 | 1007.3 |
| 20260507005025 | 12 | 220 | 1.6 | 4.8 | 0.00 | 0.71 | 0.00 | 90 | 1007.2 |
| 20260507004526 | 12 | 236 | 1.6 | 4.8 | 0.00 | 0.71 | 0.00 | 90 | 1007.2 |
| 20260507004028 | 12 | 251 | 3.2 | 8.0 | 0.00 | 0.71 | 0.00 | 90 | 1007.1 |
| 20260507003529 | 12 | 278 | 3.2 | 9.7 | 0.00 | 0.71 | 0.00 | 90 | 1007.1 |
| 20260507003030 | 12 | 253 | 3.2 | 11.3 | 0.00 | 0.71 | 0.00 | 90 | 1007.1 |
| 20260507002532 | 12 | 254 | 4.8 | 9.7 | 0.00 | 0.71 | 0.00 | 90 | 1007.0 |
| 20260507002033 | 12 | 262 | 3.2 | 6.4 | 0.00 | 0.71 | 0.00 | 90 | 1007.0 |
| 20260507001535 | 12 | 224 | 1.6 | 3.2 | 0.00 | 0.71 | 0.00 | 90 | 1006.9 |
| 20260507001036 | 12 | 223 | 1.6 | 3.2 | 0.00 | 0.71 | 0.00 | 89 | 1007.0 |
| 20260507000538 | 12 | 225 | 1.6 | 6.4 | 0.00 | 0.71 | 0.00 | 89 | 1006.8 |
| 20260507000039 | 12 | 249 | 0.0 | 1.6 | 0.00 | 0.71 | 0.00 | 89 | 1006.7 |
| 20260506235541 | 12 | 204 | 0.0 | 0.0 | 0.00 | 0.71 | 0.00 | 89 | 1006.5 |
| 20260506235042 | 12 | 180 | 0.0 | 0.0 | 0.00 | 0.71 | 0.00 | 89 | 1006.5 |
| 20260506234544 | 13 | 260 | 1.6 | 3.2 | 0.00 | 0.71 | 0.00 | 89 | 1006.6 |
| 20260506234045 | 13 | 210 | 0.0 | 3.2 | 0.00 | 0.71 | 0.00 | 90 | 1006.6 |
| 20260506233547 | 13 | 246 | 1.6 | 3.2 | 0.00 | 0.71 | 0.00 | 90 | 1006.7 |
| 20260506233048 | 13 | 250 | 3.2 | 4.8 | 0.00 | 0.76 | 0.00 | 90 | 1006.7 |
| 20260506232550 | 13 | 133 | 0.0 | 1.6 | 0.00 | 0.76 | 0.00 | 89 | 1006.7 |
| 20260506232051 | 13 | 264 | 0.0 | 3.2 | 0.00 | 0.76 | 0.00 | 89 | 1006.7 |
| 20260506231553 | 13 | 197 | 0.0 | 0.0 | 0.00 | 0.76 | 0.00 | 89 | 1006.6 |
| 20260506231054 | 13 | 223 | 1.6 | 4.8 | 0.00 | 0.76 | 0.00 | 89 | 1006.6 |
| 20260506230556 | 13 | 80 | 0.0 | 1.6 | 0.00 | 0.81 | 0.00 | 89 | 1006.6 |
| 20260506230057 | 13 | 251 | 0.0 | 3.2 | 0.00 | 0.81 | 0.00 | 89 | 1006.5 |
| 20260506225558 | 13 | 244 | 1.6 | 6.4 | 0.00 | 0.81 | 0.00 | 89 | 1006.7 |
| 20260506225100 | 13 | 223 | 0.0 | 3.2 | 0.00 | 0.81 | 0.00 | 89 | 1006.7 |
| 20260506224601 | 13 | 259 | 1.6 | 4.8 | 0.00 | 0.81 | 0.00 | 89 | 1006.7 |
| 20260506224103 | 13 | 227 | 0.0 | 1.6 | 0.00 | 0.81 | 0.00 | 89 | 1006.6 |
| 20260506223604 | 13 | 258 | 1.6 | 6.4 | 0.00 | 0.81 | 0.00 | 88 | 1006.6 |
| 20260506223106 | 13 | 274 | 0.0 | 1.6 | 0.00 | 0.81 | 0.00 | 88 | 1006.6 |
| 20260506222607 | 13 | 256 | 0.0 | 3.2 | 0.00 | 0.81 | 0.00 | 88 | 1006.5 |
| 20260506222109 | 13 | 267 | 0.0 | 3.2 | 0.00 | 0.81 | 0.00 | 88 | 1006.5 |
| 20260506221606 | 13 | 227 | 0.0 | 0.0 | 0.05 | 0.81 | 0.00 | 88 | 1006.4 |
| 20260506221102 | 13 | 120 | 0.0 | 1.6 | 0.10 | 0.81 | 0.00 | 88 | 1006.2 |
| 20260506220559 | 13 | 93 | 0.0 | 1.6 | 0.15 | 0.81 | 0.00 | 88 | 1006.2 |
| 20260506220056 | 13 | 121 | 0.0 | 3.2 | 0.20 | 0.81 | 0.00 | 88 | 1006.2 |
| 20260506215552 | 13 | 91 | 1.6 | 4.8 | 0.20 | 0.86 | 0.00 | 88 | 1006.3 |
| 20260506215049 | 13 | 113 | 3.2 | 4.8 | 0.20 | 0.91 | 0.00 | 88 | 1006.3 |
| 20260506214546 | 13 | 100 | 1.6 | 4.8 | 0.20 | 0.91 | 0.00 | 87 | 1006.3 |
| 20260506214042 | 13 | 94 | 1.6 | 4.8 | 0.25 | 0.91 | 0.00 | 87 | 1006.3 |
| 20260506213539 | 13 | 93 | 3.2 | 8.0 | 0.25 | 0.97 | 0.00 | 87 | 1006.3 |
| 20260506213036 | 13 | 112 | 1.6 | 3.2 | 0.30 | 0.97 | 0.00 | 87 | 1006.5 |
| 20260506212532 | 13 | 138 | 0.0 | 1.6 | 0.46 | 0.97 | 0.00 | 87 | 1006.5 |
| 20260506212029 | 13 | 190 | 0.0 | 3.2 | 0.51 | 0.97 | 0.00 | 87 | 1006.6 |
| 20260506211525 | 13 | 106 | 0.0 | 3.2 | 0.46 | 0.91 | 0.00 | 87 | 1006.4 |
| 20260506211021 | 13 | 144 | 0.0 | 3.2 | 0.46 | 0.86 | 0.00 | 87 | 1006.4 |
| 20260506210517 | 13 | 188 | 0.0 | 1.6 | 0.41 | 0.86 | 0.00 | 87 | 1006.5 |
| 20260506210013 | 13 | 207 | 1.6 | 9.7 | 0.36 | 0.81 | 0.00 | 87 | 1006.6 |
| 20260506205509 | 13 | 229 | 3.2 | 8.0 | 0.36 | 0.86 | 0.00 | 86 | 1006.7 |
| 20260506205006 | 13 | 231 | 1.6 | 4.8 | 0.36 | 0.91 | 0.00 | 86 | 1006.7 |
| 20260506204503 | 13 | 222 | 1.6 | 8.0 | 0.36 | 0.91 | 0.00 | 86 | 1006.7 |
| 20260506203959 | 13 | 245 | 1.6 | 6.4 | 0.30 | 0.86 | 0.00 | 86 | 1006.6 |
| 20260506203456 | 13 | 258 | 0.0 | 3.2 | 0.30 | 0.86 | 0.00 | 86 | 1006.6 |
| 20260506202951 | 14 | 231 | 1.6 | 4.8 | 0.25 | 0.81 | 0.00 | 86 | 1006.5 |
| 20260506202446 | 14 | 227 | 3.2 | 4.8 | 0.10 | 0.71 | 0.00 | 86 | 1006.4 |
| 20260506201941 | 14 | 218 | 1.6 | 1.6 | 0.05 | 0.66 | 0.00 | 86 | 1006.1 |
| 20260506201438 | 14 | 161 | 1.6 | 1.6 | 0.05 | 0.66 | 0.00 | 85 | 1005.6 |
| 20260506200944 | 14 | 70 | 1.6 | 4.8 | 0.00 | 0.61 | 0.00 | 85 | 1005.2 |
| 20260506200446 | 14 | 198 | 1.6 | 4.8 | 0.00 | 0.61 | 0.00 | 85 | 1005.5 |
| 20260506195947 | 14 | 245 | 1.6 | 3.2 | 0.00 | 0.61 | 0.00 | 85 | 1005.5 |
| 20260506195449 | 14 | 223 | 3.2 | 4.8 | 0.00 | 0.61 | 0.00 | 85 | 1005.2 |
| 20260506194950 | 14 | 90 | 0.0 | 0.0 | 0.00 | 0.61 | 0.00 | 85 | 1005.1 |
| 20260506194452 | 14 | 232 | 1.6 | 4.8 | 0.00 | 0.61 | 0.00 | 85 | 1005.2 |
| 20260506193953 | 14 | 76 | 1.6 | 4.8 | 0.00 | 0.61 | 0.00 | 85 | 1005.2 |
| 20260506193454 | 14 | 260 | 0.0 | 1.6 | 0.00 | 0.61 | 0.00 | 84 | 1005.0 |